Terminal Aerodrome Forecast
Issued by NWS

Home | Current Version | Previous Version | Graphics & Text | Print | Product List | Glossary On
Versions: 1 2 3 4 5 6 7 8 9 10 11 12 13 14 15 16 17 18 19 20 21 22 23 24 25 26 27 28
761
FTUS45 KGGW 191928 AAA
TAFOLF
TAF AMD
KOLF 191928Z 1919/2018 09012KT P6SM BKN110
     FM201100 07006KT P6SM BKN030
     FM201300 07006KT P6SM BKN015
     FM201400 08007KT P6SM SCT015=

USA.gov is the U.S. government's official web portal to all federal, state and local government web resources and services.